Time;durP1;ratioP1;P1;durP2;ratioP2;P2;SDS_P1;SDS_P2;PMS_P1;PMS_P2;Temp;Humidity;BMP_temperature;BMP_pressure;BME280_temperature;BME280_humidity;BME280_pressure;Samples;Min_cycle;Max_cycle;Signal;HPM_P1;HPM_P2
2021/12/05 00:23:40;;;;;;;19.42;7.47;;;;;;;-1.93;100.00;98666.97;5122182;27;20400;-50
2021/12/05 00:26:10;;;;;;;23.20;9.23;;;;;;;-1.94;100.00;98661.88;5153123;27;20059;-50
2021/12/05 00:28:54;;;;;;;34.53;10.43;;;;;;;-1.98;100.00;98652.81;5153780;27;20043;-50
2021/12/05 00:40:10;;;;;;;24.23;8.68;;;;;;;-2.30;100.00;98624.88;5153955;27;20469;-50
2021/12/05 00:45:46;;;;;;;24.23;8.82;;;;;;;-2.40;100.00;98608.91;5153260;27;20509;-50
2021/12/05 00:54:21;;;;;;;21.13;8.43;;;;;;;-2.52;100.00;98589.78;5153470;27;20050;-51
2021/12/05 00:57:13;;;;;;;20.92;7.00;;;;;;;-2.55;100.00;98576.97;5153099;27;20095;-51
2021/12/05 00:59:54;;;;;;;;;;;;;;;-2.52;100.00;98569.13;5153650;27;20046;-52
2021/12/05 01:02:39;;;;;;;22.85;7.55;;;;;;;-2.56;100.00;98565.44;5153591;27;19923;-50
2021/12/05 01:05:46;;;;;;;41.03;11.00;;;;;;;-2.57;100.00;98563.81;5153151;27;20054;-51
2021/12/05 01:11:14;;;;;;;34.17;9.93;;;;;;;-2.67;100.00;98529.91;5121254;27;20039;-50
2021/12/05 01:13:55;;;;;;;34.65;12.88;;;;;;;-2.70;100.00;98530.50;5153422;27;20500;-51
2021/12/05 01:16:22;;;;;;;29.55;9.93;;;;;;;-2.74;100.00;98539.41;5152862;27;20057;-53
2021/12/05 01:18:49;;;;;;;34.33;11.10;;;;;;;-2.82;100.00;98527.47;5153073;27;20093;-50
2021/12/05 01:21:20;;;;;;;25.17;10.60;;;;;;;-2.89;100.00;98514.44;5152758;27;20057;-53
2021/12/05 01:23:55;;;;;;;29.02;10.48;;;;;;;-2.95;100.00;98510.22;5152858;27;20141;-51
2021/12/05 01:26:25;;;;;;;29.85;10.07;;;;;;;-2.94;100.00;98514.50;5153020;27;20100;-52
2021/12/05 01:29:11;;;;;;;26.17;9.98;;;;;;;-2.92;100.00;98504.28;5152661;27;20126;-50
2021/12/05 01:31:48;;;;;;;38.67;9.82;;;;;;;-2.93;100.00;98507.25;5152827;27;20056;-50
2021/12/05 01:34:28;;;;;;;30.95;10.15;;;;;;;-2.97;100.00;98490.16;5152952;27;20047;-53
2021/12/05 01:37:06;;;;;;;27.13;10.38;;;;;;;-2.97;100.00;98476.75;5152519;27;20063;-52
2021/12/05 01:39:45;;;;;;;27.30;9.82;;;;;;;-3.02;100.00;98493.72;5151412;27;20498;-50
2021/12/05 01:53:34;;;;;;;24.35;9.77;;;;;;;-3.11;100.00;98457.91;5152952;27;20116;-53
2021/12/05 01:59:05;;;;;;;23.40;10.15;;;;;;;-3.08;100.00;98449.28;5110055;27;20046;-53
2021/12/05 02:32:33;;;;;;;29.02;12.15;;;;;;;-1.95;100.00;98454.22;5152449;27;20053;-50
2021/12/05 02:35:16;;;;;;;35.08;11.27;;;;;;;-1.85;100.00;98471.25;5151544;27;20089;-50
2021/12/05 02:40:35;;;;;;;28.80;11.25;;;;;;;-1.72;100.00;98503.47;5137697;27;20520;-50
2021/12/05 02:43:07;;;;;;;26.85;10.43;;;;;;;-1.67;100.00;98524.88;5151571;27;20095;-50
2021/12/05 02:45:36;;;;;;;28.73;12.98;;;;;;;-1.66;100.00;98531.03;5151807;27;20054;-52
2021/12/05 02:48:03;;;;;;;26.05;11.38;;;;;;;-1.59;100.00;98539.50;5151342;27;20046;-50
2021/12/05 02:50:32;;;;;;;26.05;11.80;;;;;;;-1.57;100.00;98548.03;5151610;27;20408;-50
2021/12/05 02:53:08;;;;;;;24.25;11.77;;;;;;;-1.64;100.00;98558.41;5151534;27;20468;-50
2021/12/05 02:55:39;;;;;;;28.27;11.52;;;;;;;-1.74;100.00;98566.66;5151356;27;20046;-51
2021/12/05 02:58:16;;;;;;;28.75;11.75;;;;;;;-1.74;100.00;98572.81;5151278;27;20054;-50
2021/12/05 03:00:52;;;;;;;22.17;11.05;;;;;;;-1.80;100.00;98583.97;5151424;27;20444;-50
2021/12/05 03:03:22;;;;;;;33.97;12.68;;;;;;;-1.87;100.00;98595.13;5151529;27;20042;-50
2021/12/05 03:05:54;;;;;;;34.63;13.57;;;;;;;-1.92;100.00;98587.16;5151237;27;20079;-50
2021/12/05 03:08:22;;;;;;;32.08;13.23;;;;;;;-1.93;100.00;98583.69;5151542;27;20050;-50
2021/12/05 03:10:49;;;;;;;26.20;12.45;;;;;;;-1.91;100.00;98580.69;5151139;27;20047;-50
2021/12/05 03:13:15;;;;;;;24.90;11.43;;;;;;;-1.91;100.00;98578.00;5151182;27;20528;-50
2021/12/05 03:15:41;;;;;;;28.60;12.23;;;;;;;-1.93;100.00;98586.38;5151080;27;20053;-51
2021/12/05 03:18:08;;;;;;;28.88;12.20;;;;;;;-1.95;100.00;98587.75;5150931;27;20057;-51
2021/12/05 03:20:34;;;;;;;29.85;11.88;;;;;;;-1.91;100.00;98591.44;5151006;27;20047;-54
2021/12/05 03:23:00;;;;;;;34.95;12.95;;;;;;;-1.90;100.00;98593.84;5151242;27;20051;-50
2021/12/05 03:25:28;;;;;;;29.02;11.65;;;;;;;-1.89;100.00;98602.69;5151255;27;20047;-50
2021/12/05 03:27:54;;;;;;;27.95;11.68;;;;;;;-1.87;100.00;98610.44;5151088;27;20055;-53
2021/12/05 03:30:24;;;;;;;26.55;11.98;;;;;;;-1.85;100.00;98622.50;5150785;27;20046;-53
2021/12/05 03:32:52;;;;;;;30.38;12.00;;;;;;;-1.79;100.00;98621.31;5150834;27;20466;-53
2021/12/05 03:35:22;;;;;;;33.22;11.82;;;;;;;-1.79;100.00;98634.75;5150947;27;20421;-52
2021/12/05 03:37:49;;;;;;;38.92;15.68;;;;;;;-1.76;100.00;98634.16;5150899;27;20046;-51
2021/12/05 03:40:17;;;;;;;35.55;14.27;;;;;;;-1.66;100.00;98633.19;5150726;27;20055;-54
2021/12/05 03:42:45;;;;;;;31.33;12.27;;;;;;;-1.64;100.00;98633.66;5150883;27;20053;-54
2021/12/05 03:45:16;;;;;;;46.20;16.33;;;;;;;-1.63;100.00;98639.81;5150606;27;20067;-54
2021/12/05 03:47:42;;;;;;;26.23;12.32;;;;;;;-1.63;100.00;98640.66;5150706;27;20050;-52
2021/12/05 03:50:11;;;;;;;31.75;12.18;;;;;;;-1.64;100.00;98643.63;5150762;27;20103;-54
2021/12/05 03:52:38;;;;;;;39.58;14.73;;;;;;;-1.67;100.00;98639.63;5150685;27;20054;-51
2021/12/05 03:55:07;;;;;;;23.83;11.07;;;;;;;-1.68;100.00;98646.91;5150740;27;20493;-54
2021/12/05 03:57:34;;;;;;;26.90;10.65;;;;;;;-1.71;100.00;98654.75;5150841;27;20049;-51
2021/12/05 04:00:01;;;;;;;33.63;13.02;;;;;;;-1.74;100.00;98648.06;5150353;27;20051;-54
2021/12/05 04:02:27;;;;;;;30.52;13.05;;;;;;;-1.86;100.00;98653.16;5153015;27;20130;-50
2021/12/05 04:04:54;;;;;;;25.88;12.23;;;;;;;-1.92;100.00;98657.81;5154212;27;20500;-53
2021/12/05 04:07:20;;;;;;;27.27;12.18;;;;;;;-1.93;100.00;98652.75;5154198;27;20420;-50
2021/12/05 04:09:46;;;;;;;29.20;12.30;;;;;;;-2.03;100.00;98656.41;5154064;27;20050;-50
2021/12/05 04:12:15;;;;;;;32.88;13.68;;;;;;;-2.07;100.00;98655.34;5153967;27;20046;-51
2021/12/05 04:14:45;;;;;;;28.23;12.23;;;;;;;-2.16;100.00;98659.84;5153855;27;20042;-50
2021/12/05 04:17:14;;;;;;;26.25;11.52;;;;;;;-2.28;100.00;98654.09;5153993;27;20047;-50
2021/12/05 04:19:41;;;;;;;28.05;12.10;;;;;;;-2.39;100.00;98653.47;5154022;27;20463;-52
2021/12/05 04:22:08;;;;;;;38.75;14.05;;;;;;;-2.51;100.00;98650.44;5153877;27;20053;-52
2021/12/05 04:24:36;;;;;;;34.70;12.88;;;;;;;-2.64;100.00;98636.66;5153963;27;20058;-51
2021/12/05 04:27:03;;;;;;;37.80;13.43;;;;;;;-2.72;100.00;98631.94;5153714;27;20047;-50
2021/12/05 04:29:31;;;;;;;31.95;12.73;;;;;;;-2.77;100.00;98625.84;5153628;27;20046;-52
2021/12/05 04:31:58;;;;;;;30.27;12.80;;;;;;;-2.86;100.00;98609.63;5153731;27;20047;-51
2021/12/05 04:34:25;;;;;;;38.65;14.75;;;;;;;-2.90;100.00;98613.94;5153616;27;20084;-51
2021/12/05 04:36:56;;;;;;;152.10;43.38;;;;;;;-2.97;100.00;98617.00;5153712;27;20456;-50
2021/12/05 04:39:23;;;;;;;77.68;28.02;;;;;;;-3.02;100.00;98606.34;5153483;27;20051;-53
2021/12/05 04:41:50;;;;;;;79.95;25.65;;;;;;;-2.98;100.00;98603.88;5153439;27;20042;-50
2021/12/05 04:44:17;;;;;;;73.43;23.90;;;;;;;-2.97;100.00;98598.22;5153469;27;20455;-52
2021/12/05 04:46:44;;;;;;;33.05;15.20;;;;;;;-2.98;100.00;98590.47;5153731;27;20103;-50
2021/12/05 04:49:11;;;;;;;42.47;15.02;;;;;;;-2.97;100.00;98584.81;5153519;27;20051;-52
2021/12/05 04:51:40;;;;;;;33.97;14.43;;;;;;;-3.01;100.00;98580.31;5153479;27;20047;-50
2021/12/05 04:54:09;;;;;;;38.38;13.60;;;;;;;-3.10;100.00;98572.94;5153332;27;20057;-51
2021/12/05 04:56:35;;;;;;;30.42;13.50;;;;;;;-3.14;100.00;98568.44;5153297;27;20512;-50
2021/12/05 04:59:04;;;;;;;39.50;15.70;;;;;;;-3.14;100.00;98568.44;5153284;27;20050;-50
2021/12/05 05:01:31;;;;;;;51.92;14.63;;;;;;;-3.11;100.00;98573.22;5153902;27;20047;-51
2021/12/05 05:03:58;;;;;;;40.22;14.65;;;;;;;-3.13;100.00;98564.69;5153422;27;20062;-51
2021/12/05 05:06:24;;;;;;;28.70;13.27;;;;;;;-3.10;100.00;98574.81;5153824;27;20119;-50
2021/12/05 05:08:55;;;;;;;45.88;15.90;;;;;;;-3.02;100.00;98563.44;5153261;27;20042;-49
2021/12/05 05:11:26;;;;;;;43.83;15.15;;;;;;;-2.93;100.00;98559.03;5153112;27;20051;-50
2021/12/05 05:13:52;;;;;;;25.40;11.88;;;;;;;-2.81;100.00;98555.88;5153067;27;20047;-50
2021/12/05 05:16:22;;;;;;;28.10;13.18;;;;;;;-2.86;100.00;98547.94;5152942;27;20050;-51
2021/12/05 05:18:51;;;;;;;30.80;13.25;;;;;;;-2.94;100.00;98541.31;5153109;27;20065;-51
2021/12/05 05:21:31;;;;;;;29.67;12.10;;;;;;;-2.96;100.00;98553.44;5152950;27;20046;-53
2021/12/05 05:24:18;;;;;;;24.77;11.93;;;;;;;-2.94;100.00;98545.88;5152907;27;20135;-52
2021/12/05 05:30:05;;;;;;;31.90;12.35;;;;;;;-2.93;100.00;98552.84;5145371;27;20149;-50
2021/12/05 05:44:13;;;;;;;38.13;15.38;;;;;;;-2.59;100.00;98555.28;5068594;28;20399;-53
2021/12/05 05:46:53;;;;;;;39.50;15.52;;;;;;;-2.52;100.00;98563.75;5068732;28;20490;-50
2021/12/05 05:49:22;;;;;;;33.92;13.77;;;;;;;-2.43;100.00;98580.00;5129778;27;20462;-52
2021/12/05 05:51:48;;;;;;;33.92;14.27;;;;;;;-2.42;100.00;98587.75;5152341;27;20053;-53
2021/12/05 05:54:16;;;;;;;37.78;14.40;;;;;;;-2.37;100.00;98598.41;5152448;27;20417;-51
2021/12/05 05:56:45;;;;;;;41.80;15.48;;;;;;;-2.34;100.00;98613.09;5152190;27;20093;-52
2021/12/05 05:59:17;;;;;;;43.47;15.75;;;;;;;-2.30;100.00;98626.75;5152504;27;20518;-50
2021/12/05 06:02:04;;;;;;;39.90;17.45;;;;;;;-2.22;100.00;98637.63;5152520;27;20057;-52
2021/12/05 06:04:29;;;;;;;49.03;18.27;;;;;;;-2.14;100.00;98644.22;5152310;27;20170;-51
2021/12/05 06:06:56;;;;;;;37.70;19.48;;;;;;;-2.13;100.00;98659.25;5152020;27;20564;-50
2021/12/05 06:09:23;;;;;;;49.45;19.30;;;;;;;-2.04;100.00;98664.72;5152582;27;20046;-54
2021/12/05 06:11:49;;;;;;;87.18;33.13;;;;;;;-1.97;100.00;98679.38;5152069;27;20055;-52
2021/12/05 06:14:16;;;;;;;55.38;23.45;;;;;;;-1.98;100.00;98701.16;5152063;27;20193;-49
2021/12/05 06:16:42;;;;;;;50.08;21.45;;;;;;;-1.97;100.00;98710.81;5152115;27;20058;-50
2021/12/05 06:19:09;;;;;;;49.97;21.58;;;;;;;-1.92;100.00;98724.19;5152120;27;20424;-51
2021/12/05 06:21:35;;;;;;;45.10;20.23;;;;;;;-1.94;100.00;98731.72;5152000;27;20413;-50
2021/12/05 06:24:02;;;;;;;42.55;18.15;;;;;;;-1.94;100.00;98735.19;5151297;27;20493;-51
2021/12/05 06:26:28;;;;;;;45.10;17.83;;;;;;;-1.94;100.00;98739.78;5152016;27;20492;-50
2021/12/05 06:29:06;;;;;;;42.15;17.30;;;;;;;-1.96;100.00;98747.34;5151984;27;20050;-50
2021/12/05 06:31:49;;;;;;;37.00;16.88;;;;;;;-2.00;100.00;98762.44;5151392;27;20114;-50
2021/12/05 06:37:25;;;;;;;37.47;16.33;;;;;;;-1.96;100.00;98769.63;5151828;27;20542;-50
2021/12/05 06:40:13;;;;;;;43.05;17.55;;;;;;;-1.88;100.00;98775.44;5152140;27;20046;-52
2021/12/05 06:42:50;;;;;;;32.45;16.50;;;;;;;-1.75;100.00;98772.00;5151898;27;20105;-51
2021/12/05 06:48:01;;;;;;;34.17;16.92;;;;;;;-1.68;100.00;98789.34;5151556;27;20095;-53
2021/12/05 06:50:27;;;;;;;33.42;16.00;;;;;;;-1.64;100.00;98797.63;5151458;27;20409;-50
2021/12/05 06:52:53;;;;;;;35.30;16.20;;;;;;;-1.63;100.00;98806.47;5151459;27;20047;-50
2021/12/05 06:55:20;;;;;;;33.38;15.75;;;;;;;-1.62;100.00;98806.19;5151531;27;20046;-51
2021/12/05 06:57:47;;;;;;;39.67;16.83;;;;;;;-1.54;100.00;98807.41;5151410;27;20053;-51
2021/12/05 07:00:19;;;;;;;35.47;15.93;;;;;;;-1.59;100.00;98818.25;5151269;27;20046;-53
2021/12/05 07:02:45;;;;;;;32.38;14.88;;;;;;;-1.50;100.00;98821.84;5151634;27;20046;-53
2021/12/05 07:07:52;;;;;;;36.17;16.73;;;;;;;-1.51;100.00;98839.88;5148090;27;20932;-51
2021/12/05 07:10:20;;;;;;;39.35;16.95;;;;;;;-1.45;100.00;98843.28;5151184;27;20515;-50
2021/12/05 07:15:40;;;;;;;44.80;20.05;;;;;;;-1.34;100.00;98839.34;5151532;27;20088;-53
2021/12/05 07:21:03;;;;;;;35.72;17.45;;;;;;;-1.33;100.00;98840.94;5151408;27;20099;-51
2021/12/05 07:23:44;;;;;;;37.80;17.85;;;;;;;-1.24;100.00;98844.53;5151024;27;20051;-50
2021/12/05 07:26:14;;;;;;;40.15;19.00;;;;;;;-1.28;100.00;98854.31;5150957;27;20112;-50
2021/12/05 07:42:23;;;;;;;36.30;17.05;;;;;;;-0.85;100.00;98858.69;5124632;27;20137;-52
2021/12/05 07:44:50;;;;;;;31.85;16.40;;;;;;;-0.80;100.00;98858.59;5154634;27;20049;-54
2021/12/05 07:47:19;;;;;;;32.08;16.55;;;;;;;-0.72;100.00;98860.59;5154152;27;20059;-54
2021/12/05 07:49:45;;;;;;;41.67;16.70;;;;;;;-0.64;100.00;98857.19;5154290;27;20058;-51
2021/12/05 07:52:16;;;;;;;34.72;15.05;;;;;;;-0.73;100.00;98853.63;5154418;27;20070;-53
2021/12/05 07:54:46;;;;;;;33.17;16.00;;;;;;;-0.61;100.00;98848.53;5154313;27;20151;-50
2021/12/05 07:57:18;;;;;;;34.97;17.50;;;;;;;-0.42;100.00;98843.06;5154365;27;20051;-50
2021/12/05 07:59:57;;;;;;;32.38;15.98;;;;;;;-0.20;100.00;98842.34;5154147;27;20050;-50
2021/12/05 08:16:09;;;;;;;40.95;17.70;;;;;;;-0.31;100.00;98822.88;5154040;27;20404;-50
2021/12/05 08:18:36;;;;;;;34.33;16.80;;;;;;;-0.48;100.00;98817.31;5154011;27;20104;-50
2021/12/05 08:21:05;;;;;;;35.83;17.67;;;;;;;-0.45;100.00;98829.41;5153933;27;20046;-51
2021/12/05 08:23:32;;;;;;;39.75;17.85;;;;;;;-0.34;100.00;98826.19;5153830;27;20053;-53
2021/12/05 08:26:07;;;;;;;36.05;16.83;;;;;;;-0.28;100.00;98821.50;5153857;27;20061;-50
2021/12/05 08:28:58;;;;;;;44.50;18.25;;;;;;;-0.20;100.00;98812.72;5153598;27;20046;-52
2021/12/05 08:31:34;;;;;;;42.35;17.88;;;;;;;0.01;100.00;98806.88;5153351;27;20504;-54
2021/12/05 08:34:17;;;;;;;38.85;17.23;;;;;;;0.05;100.00;98805.16;5153896;27;20054;-54
2021/12/05 08:37:19;;;;;;;36.53;16.25;;;;;;;0.14;100.00;98797.94;5153653;27;20255;-52
2021/12/05 08:43:01;;;;;;;41.10;17.10;;;;;;;0.31;100.00;98756.84;5118569;27;20508;-54
2021/12/05 09:27:26;;;;;;;35.88;18.25;;;;;;;-0.32;100.00;98836.66;5152722;27;20421;-50
2021/12/05 09:30:11;;;;;;;33.42;16.65;;;;;;;-0.25;100.00;98837.06;5152438;27;20053;-50
2021/12/05 09:38:58;;;;;;;39.60;16.23;;;;;;;-0.31;100.00;98814.00;5068694;28;19989;-53
2021/12/05 10:06:50;;;;;;;33.72;17.65;;;;;;;0.19;100.00;98765.47;5152338;27;20050;-51
2021/12/05 10:09:34;;;;;;;43.72;18.02;;;;;;;0.25;100.00;98755.38;5152317;27;20082;-50
2021/12/05 10:12:20;;;;;;;48.63;19.80;;;;;;;0.28;100.00;98720.50;5152209;27;20421;-51
2021/12/05 10:14:57;;;;;;;48.13;20.90;;;;;;;0.36;100.00;98708.97;5152040;27;20092;-51
2021/12/05 10:17:42;;;;;;;44.25;21.38;;;;;;;0.31;100.00;98678.66;5151970;27;20104;-50
2021/12/05 10:26:15;;;;;;;44.80;21.08;;;;;;;0.27;100.00;98659.59;5151913;27;20050;-51
2021/12/05 10:26:35;;;;;;;44.30;21.15;;;;;;;0.29;100.00;98668.16;5152110;27;20146;-50
2021/12/05 10:35:01;;;;;;;41.50;18.88;;;;;;;0.63;100.00;98661.34;5151808;27;20106;-50
2021/12/05 10:37:27;;;;;;;38.20;19.60;;;;;;;0.74;100.00;98661.88;5151619;27;20047;-50
2021/12/05 10:40:06;;;;;;;37.33;17.05;;;;;;;0.82;100.00;98642.22;5151658;27;20053;-50
2021/12/05 10:42:42;;;;;;;33.72;16.40;;;;;;;0.89;100.00;98583.97;5151541;27;20057;-51
2021/12/05 10:45:11;;;;;;;35.65;16.23;;;;;;;0.97;100.00;98555.41;5151886;27;20049;-50
2021/12/05 10:47:41;;;;;;;32.38;17.15;;;;;;;1.04;100.00;98498.25;5151371;27;20526;-53
2021/12/05 10:50:34;;;;;;;37.55;17.42;;;;;;;1.31;100.00;98435.03;5152016;27;20406;-50
2021/12/05 10:53:20;;;;;;;33.38;16.48;;;;;;;1.44;100.00;98336.00;5151367;27;20054;-51
2021/12/05 10:55:55;;;;;;;30.58;15.98;;;;;;;1.60;100.00;98291.09;5151310;27;20057;-54
2021/12/05 10:58:23;;;;;;;37.85;17.83;;;;;;;1.69;100.00;98215.41;5132728;27;20137;-54
2021/12/05 11:00:56;;;;;;;37.40;16.90;;;;;;;1.73;100.00;98151.47;5150990;27;20047;-55
2021/12/05 11:03:24;;;;;;;39.53;17.08;;;;;;;1.70;100.00;98084.56;5151001;27;20043;-54
2021/12/05 11:05:50;;;;;;;41.15;18.63;;;;;;;1.63;100.00;98031.09;5151332;27;20058;-54
2021/12/05 11:08:35;;;;;;;38.72;17.20;;;;;;;1.58;100.00;98037.50;5150880;27;20043;-52
2021/12/05 11:11:09;;;;;;;31.95;14.10;;;;;;;1.60;100.00;98058.75;5154528;27;20572;-52
2021/12/05 11:13:38;;;;;;;32.33;15.40;;;;;;;1.52;100.00;98051.53;5158264;27;20053;-52
2021/12/05 11:16:25;;;;;;;27.65;14.65;;;;;;;1.50;100.00;98080.78;5158053;27;20477;-54
2021/12/05 11:18:52;;;;;;;25.77;14.73;;;;;;;1.45;100.00;98065.59;5157849;27;20077;-51
2021/12/05 11:21:30;;;;;;;32.67;13.90;;;;;;;1.45;100.00;98024.28;5158211;27;20524;-54
2021/12/05 11:24:21;;;;;;;23.80;11.10;;;;;;;1.45;100.00;97994.59;5157950;27;20057;-52
2021/12/05 11:27:06;;;;;;;25.52;10.73;;;;;;;1.33;100.00;97941.31;5152470;27;20051;-51
2021/12/05 11:29:48;;;;;;;20.80;11.13;;;;;;;1.20;100.00;97924.31;5158017;27;20137;-50
2021/12/05 11:32:17;;;;;;;21.35;10.25;;;;;;;1.03;100.00;97897.47;5157606;27;20426;-53
2021/12/05 11:34:46;;;;;;;22.10;11.63;;;;;;;0.91;100.00;97909.81;5157832;27;20413;-50
2021/12/05 11:37:12;;;;;;;20.70;9.63;;;;;;;0.81;100.00;97936.41;5157900;27;20110;-50
2021/12/05 11:39:39;;;;;;;22.48;11.70;;;;;;;0.72;100.00;97978.84;5157739;27;20050;-51
2021/12/05 11:42:14;;;;;;;24.05;10.73;;;;;;;0.69;100.00;98023.44;5157732;27;20047;-52
2021/12/05 11:44:41;;;;;;;25.73;11.40;;;;;;;0.61;100.00;98041.28;5157851;27;20050;-51
2021/12/05 11:47:13;;;;;;;24.40;11.43;;;;;;;0.54;100.00;98081.47;5157631;27;20058;-54
2021/12/05 11:49:39;;;;;;;25.23;10.50;;;;;;;0.42;100.00;98094.84;5157752;27;20046;-52
2021/12/05 11:52:08;;;;;;;22.45;11.25;;;;;;;0.37;100.00;98127.38;5157805;27;20047;-53
2021/12/05 11:54:37;;;;;;;24.65;11.30;;;;;;;0.27;100.00;98184.31;5157373;27;20529;-54
2021/12/05 11:57:06;;;;;;;22.20;10.98;;;;;;;0.18;100.00;98241.75;5157385;27;20207;-51
2021/12/05 11:59:36;;;;;;;23.88;10.95;;;;;;;0.15;100.00;98309.75;5157210;27;20042;-50
2021/12/05 12:02:07;;;;;;;22.45;11.38;;;;;;;0.11;100.00;98364.63;5157500;27;20142;-50
2021/12/05 12:04:51;;;;;;;23.63;12.13;;;;;;;0.03;100.00;98405.81;5157382;27;20557;-50
2021/12/05 12:07:29;;;;;;;28.48;11.30;;;;;;;-0.04;100.00;98444.78;5157223;27;20050;-50
2021/12/05 12:09:59;;;;;;;31.95;10.68;;;;;;;-0.11;100.00;98484.06;5157652;27;20165;-53
2021/12/05 12:12:26;;;;;;;30.48;12.30;;;;;;;-0.20;100.00;98527.16;5157271;27;20519;-52
2021/12/05 12:14:52;;;;;;;31.33;12.13;;;;;;;-0.22;100.00;98550.09;5157290;27;20470;-50
2021/12/05 12:17:19;;;;;;;27.45;12.98;;;;;;;-0.33;100.00;98577.31;5157501;27;20516;-51
2021/12/05 12:19:49;;;;;;;27.63;11.68;;;;;;;-0.43;100.00;98609.03;5157399;27;20051;-53
2021/12/05 12:22:20;;;;;;;27.58;12.30;;;;;;;-0.53;100.00;98631.66;5155230;27;20137;-53
2021/12/05 12:24:49;;;;;;;25.55;11.85;;;;;;;-0.62;100.00;98665.78;5153904;27;20093;-52
2021/12/05 12:27:17;;;;;;;30.50;13.90;;;;;;;-0.64;100.00;98673.34;5153642;27;20129;-51
2021/12/05 12:29:44;;;;;;;26.42;12.52;;;;;;;-0.69;100.00;98703.88;5153860;27;20420;-51
2021/12/05 12:32:16;;;;;;;29.05;13.30;;;;;;;-0.73;100.00;98719.84;5153507;27;20047;-54
2021/12/05 12:34:44;;;;;;;36.53;15.95;;;;;;;-0.74;100.00;98750.53;5153742;27;20497;-50
2021/12/05 12:37:12;;;;;;;28.15;13.73;;;;;;;-0.79;100.00;98777.56;5153635;27;20050;-53
2021/12/05 12:39:41;;;;;;;29.58;15.00;;;;;;;-0.98;100.00;98801.84;5153367;27;20501;-50
2021/12/05 12:42:16;;;;;;;35.15;16.23;;;;;;;-1.05;100.00;98827.56;5154114;27;20463;-50
2021/12/05 12:45:10;;;;;;;39.13;17.63;;;;;;;-1.09;100.00;98850.78;5153542;27;20079;-52
2021/12/05 12:47:39;;;;;;;25.27;13.93;;;;;;;-1.22;100.00;98860.41;5153687;27;20528;-51
2021/12/05 12:50:37;;;;;;;28.73;14.98;;;;;;;-1.40;100.00;98872.78;5153197;27;20082;-54
2021/12/05 12:53:10;;;;;;;31.33;14.27;;;;;;;-1.62;100.00;98886.03;5049280;28;20057;-51
2021/12/05 12:55:39;;;;;;;32.30;14.20;;;;;;;-1.83;100.00;98901.63;5134318;27;20051;-53
2021/12/05 12:58:10;;;;;;;29.52;14.27;;;;;;;-1.94;100.00;98917.88;5153257;27;20138;-52
2021/12/05 13:00:39;;;;;;;32.17;15.30;;;;;;;-2.10;100.00;98927.22;5152837;27;20046;-49
2021/12/05 13:03:24;;;;;;;37.35;17.25;;;;;;;-2.16;100.00;98939.94;5153533;27;20051;-50
2021/12/05 13:07:17;;;;;;;35.30;15.98;;;;;;;-2.35;100.00;98939.06;5153111;27;20078;-50
2021/12/05 13:11:48;;;;;;;38.08;17.70;;;;;;;-2.65;100.00;98938.28;5110774;27;20054;-51
2021/12/05 13:14:15;;;;;;;34.03;15.90;;;;;;;-2.74;100.00;98923.09;5152565;27;20666;-50
2021/12/05 13:16:44;;;;;;;41.42;17.33;;;;;;;-2.62;100.00;98913.56;5153075;27;20484;-50
2021/12/05 13:19:15;;;;;;;47.75;18.88;;;;;;;-2.69;100.00;98902.38;5153138;27;20054;-50
2021/12/05 13:21:43;;;;;;;47.75;18.98;;;;;;;-2.68;100.00;98895.13;5153033;27;20528;-51
2021/12/05 13:24:20;;;;;;;43.45;18.95;;;;;;;-2.53;100.00;98892.28;5152729;27;20066;-50
2021/12/05 13:26:46;;;;;;;47.47;19.80;;;;;;;-2.42;100.00;98879.56;5153085;27;20057;-52
2021/12/05 13:29:15;;;;;;;46.65;20.52;;;;;;;-2.40;100.00;98866.63;5152852;27;20050;-51
2021/12/05 13:31:46;;;;;;;45.15;19.58;;;;;;;-2.31;100.00;98858.75;5152227;27;20146;-51
2021/12/05 13:34:22;;;;;;;45.17;19.17;;;;;;;-2.29;100.00;98856.59;5151276;27;20050;-54
2021/12/05 13:36:51;;;;;;;45.67;19.38;;;;;;;-2.40;100.00;98869.31;5152807;27;20058;-53
2021/12/05 13:39:35;;;;;;;47.17;20.02;;;;;;;-2.46;100.00;98867.78;5152719;27;20421;-55
2021/12/05 13:42:05;;;;;;;48.65;20.42;;;;;;;-2.42;100.00;98871.50;5152797;27;20050;-53
2021/12/05 13:45:12;;;;;;;44.58;20.70;;;;;;;-2.42;100.00;98861.56;5152696;27;20047;-50
2021/12/05 13:47:43;;;;;;;47.63;20.02;;;;;;;-2.41;100.00;98859.66;5152548;27;20054;-50
2021/12/05 13:50:28;;;;;;;50.85;21.95;;;;;;;-2.27;100.00;98862.44;5152407;27;20050;-53
2021/12/05 13:52:57;;;;;;;46.03;19.55;;;;;;;-2.17;100.00;98851.56;5152508;27;20053;-53
2021/12/05 13:55:35;;;;;;;49.58;20.73;;;;;;;-2.14;100.00;98861.75;5152322;27;20047;-54
2021/12/05 13:58:19;;;;;;;50.47;19.52;;;;;;;-2.12;100.00;98864.94;5152519;27;20417;-52
2021/12/05 14:00:51;;;;;;;42.58;20.27;;;;;;;-1.99;100.00;98866.13;5152259;27;20083;-53
2021/12/05 14:03:39;;;;;;;42.67;18.60;;;;;;;-1.99;100.00;98876.88;5152391;27;20042;-52
2021/12/05 14:06:24;;;;;;;42.95;19.85;;;;;;;-1.94;100.00;98890.22;5152203;27;20505;-50
2021/12/05 14:08:51;;;;;;;37.80;17.27;;;;;;;-1.93;100.00;98900.69;5152281;27;20051;-50
2021/12/05 14:11:17;;;;;;;37.80;18.27;;;;;;;-1.98;100.00;98914.19;5152346;27;20421;-50
2021/12/05 14:13:44;;;;;;;38.90;17.67;;;;;;;-1.90;100.00;98916.25;5152119;27;20055;-51
2021/12/05 14:16:11;;;;;;;46.40;19.70;;;;;;;-1.91;100.00;98921.88;5151938;27;20058;-49
2021/12/05 14:18:37;;;;;;;47.35;19.55;;;;;;;-1.95;100.00;98932.41;5152063;27;20054;-51
2021/12/05 14:21:11;;;;;;;37.08;16.92;;;;;;;-2.05;100.00;98950.56;5152269;27;20082;-51
2021/12/05 14:23:38;;;;;;;38.13;17.88;;;;;;;-2.17;100.00;98967.84;5152340;27;20107;-52
2021/12/05 14:26:13;;;;;;;39.10;17.52;;;;;;;-2.22;100.00;98962.56;5152134;27;20453;-50
2021/12/05 14:28:40;;;;;;;47.78;18.48;;;;;;;-2.28;100.00;98973.63;5151700;27;20043;-52
2021/12/05 14:31:06;;;;;;;42.90;18.70;;;;;;;-2.28;100.00;98968.25;5151737;27;20055;-51
2021/12/05 14:33:47;;;;;;;34.35;16.63;;;;;;;-2.44;100.00;98978.34;5151812;27;20386;-49
2021/12/05 14:36:21;;;;;;;37.83;16.95;;;;;;;-2.44;100.00;98971.09;5151967;27;20047;-50
2021/12/05 14:38:47;;;;;;;40.67;18.70;;;;;;;-2.46;100.00;98959.06;5151879;27;20046;-51
2021/12/05 14:41:13;;;;;;;37.55;17.10;;;;;;;-2.49;100.00;98967.69;5151685;27;20089;-50
2021/12/05 14:43:40;;;;;;;39.20;16.73;;;;;;;-2.59;100.00;98957.03;5151751;27;20130;-50
2021/12/05 14:46:06;;;;;;;38.33;17.98;;;;;;;-2.48;100.00;98945.91;5132732;27;20521;-53
2021/12/05 14:48:33;;;;;;;53.90;20.55;;;;;;;-2.42;100.00;98942.09;5151644;27;20102;-51
2021/12/05 14:51:02;;;;;;;38.47;18.60;;;;;;;-2.24;100.00;98937.06;5151722;27;20054;-53
2021/12/05 14:53:29;;;;;;;40.50;18.30;;;;;;;-2.13;100.00;98938.56;5151581;27;20050;-51
2021/12/05 14:55:58;;;;;;;36.22;18.27;;;;;;;-2.09;100.00;98944.94;5151410;27;20145;-50
2021/12/05 14:58:27;;;;;;;37.42;18.45;;;;;;;-2.10;100.00;98961.34;5151905;27;20090;-50
2021/12/05 15:00:56;;;;;;;38.63;17.40;;;;;;;-2.17;100.00;98959.00;5151404;27;20142;-50
2021/12/05 15:03:27;;;;;;;40.90;18.77;;;;;;;-2.24;100.00;98974.66;5151358;27;20050;-50
2021/12/05 15:05:57;;;;;;;34.97;17.95;;;;;;;-2.21;100.00;98974.09;5151551;27;20421;-53
2021/12/05 15:08:26;;;;;;;47.05;19.33;;;;;;;-2.19;100.00;98969.25;5151368;27;20100;-50
2021/12/05 15:10:55;;;;;;;36.90;18.15;;;;;;;-2.18;100.00;98968.94;5151748;27;20586;-50
2021/12/05 15:13:22;;;;;;;41.70;17.70;;;;;;;-2.22;100.00;98981.34;5151171;27;20527;-51
2021/12/05 15:15:48;;;;;;;33.08;16.92;;;;;;;-2.22;100.00;98980.56;5151350;27;20111;-51
2021/12/05 15:18:18;;;;;;;31.83;16.10;;;;;;;-2.35;100.00;98984.72;5151233;27;20061;-54
2021/12/05 15:20:47;;;;;;;30.60;13.93;;;;;;;-2.28;100.00;98982.47;5151300;27;20066;-50
2021/12/05 15:23:14;;;;;;;33.15;15.32;;;;;;;-2.24;100.00;98971.97;5150920;27;20057;-51
2021/12/05 15:25:43;;;;;;;33.55;14.63;;;;;;;-2.25;100.00;98981.91;5151226;27;20425;-52
2021/12/05 15:28:12;;;;;;;32.63;15.63;;;;;;;-2.25;100.00;98997.22;5151065;27;20062;-50
2021/12/05 15:30:42;;;;;;;29.95;14.10;;;;;;;-2.24;100.00;99002.31;5151033;27;20051;-50